createdAt,value
2019-01-16T00:05:04.084Z,-2.64
2019-01-16T00:10:53.944Z,-2.59
2019-01-16T00:16:31.894Z,-2.64
2019-01-16T00:22:22.814Z,-2.70
2019-01-16T00:28:02.299Z,-2.72
2019-01-16T00:33:37.795Z,-3.04
2019-01-16T00:39:27.800Z,-3.06
2019-01-16T00:44:56.781Z,-3.00
2019-01-16T00:50:31.461Z,-2.96
2019-01-16T00:56:04.669Z,-3.03
2019-01-16T01:01:42.806Z,-3.02
2019-01-16T01:07:24.386Z,-3.23
2019-01-16T01:12:55.960Z,-3.08
2019-01-16T01:18:32.466Z,-3.19
2019-01-16T01:24:07.609Z,-3.18
2019-01-16T01:29:45.818Z,-3.12
2019-01-16T01:35:15.651Z,-3.16
2019-01-16T01:40:47.124Z,-3.10
2019-01-16T01:46:19.795Z,-3.13
2019-01-16T01:52:04.359Z,-3.13
2019-01-16T01:57:35.069Z,-3.36
2019-01-16T02:03:15.513Z,-3.44
2019-01-16T02:08:49.315Z,-3.75
2019-01-16T02:14:21.678Z,-3.66
2019-01-16T02:20:00.326Z,-3.51
2019-01-16T02:25:37.476Z,-3.59
2019-01-16T02:31:08.536Z,-3.62
2019-01-16T02:36:37.684Z,-3.61
2019-01-16T02:42:15.404Z,-3.45
2019-01-16T02:47:49.138Z,-3.51
2019-01-16T02:53:22.311Z,-3.59
2019-01-16T02:58:48.971Z,-3.73
2019-01-16T03:04:36.186Z,-3.49
2019-01-16T03:10:15.722Z,-3.65
2019-01-16T03:15:47.343Z,-3.47
2019-01-16T03:21:27.653Z,-3.96
2019-01-16T03:27:09.185Z,-3.75
2019-01-16T03:32:43.243Z,-3.46
2019-01-16T03:38:26.975Z,-3.69
2019-01-16T03:43:56.067Z,-3.90
2019-01-16T03:49:29.459Z,-3.92
2019-01-16T03:55:02.237Z,-3.83
2019-01-16T04:00:36.269Z,-3.72
2019-01-16T04:06:04.538Z,-3.65
2019-01-16T04:11:37.448Z,-3.58
2019-01-16T04:17:17.677Z,-2.70
2019-01-16T04:22:54.906Z,-2.09
2019-01-16T04:28:44.819Z,-1.84
2019-01-16T04:34:24.250Z,-1.73
2019-01-16T04:39:55.962Z,-1.74
2019-01-16T04:45:28.236Z,-1.74
2019-01-16T04:51:01.157Z,-1.62
2019-01-16T04:56:32.182Z,-1.50
2019-01-16T05:02:11.397Z,-1.41
2019-01-16T05:07:41.547Z,-1.42
2019-01-16T05:13:20.882Z,-1.36
2019-01-16T05:18:52.915Z,-1.31
2019-01-16T05:24:37.799Z,-1.32
2019-01-16T05:30:23.486Z,-1.39
2019-01-16T05:36:10.032Z,-1.79
2019-01-16T05:41:59.812Z,-1.83
2019-01-16T05:47:29.674Z,-2.01
2019-01-16T05:53:04.651Z,-2.32
2019-01-16T05:58:38.533Z,-2.30
2019-01-16T06:04:12.360Z,-2.05
2019-01-16T06:09:47.545Z,-1.87
2019-01-16T06:15:34.094Z,-1.73
2019-01-16T06:21:09.065Z,0.61
2019-01-16T06:32:33.805Z,-1.05
2019-01-16T06:38:06.300Z,-0.77
2019-01-16T06:43:50.315Z,-0.66
2019-01-16T06:49:23.912Z,-0.25
2019-01-16T06:54:54.562Z,0.02
2019-01-16T07:00:25.679Z,0.39
2019-01-16T07:06:06.903Z,1.03
2019-01-16T07:11:40.636Z,0.66
2019-01-16T07:17:08.025Z,0.93
2019-01-16T07:22:46.078Z,0.93
2019-01-16T07:28:24.598Z,1.41
2019-01-16T07:34:14.087Z,1.43
2019-01-16T07:39:46.220Z,1.59
2019-01-16T07:45:16.810Z,2.15
2019-01-16T07:50:59.796Z,2.54
2019-01-16T07:56:33.674Z,2.66
2019-01-16T08:02:09.265Z,2.70
2019-01-16T08:07:42.013Z,2.52
2019-01-16T08:13:20.863Z,2.50
2019-01-16T08:18:42.608Z,2.75
2019-01-16T08:24:12.228Z,2.60
2019-01-16T08:29:48.913Z,2.63
2019-01-16T08:35:40.184Z,2.61
2019-01-16T08:41:18.130Z,3.14
2019-01-16T08:46:54.976Z,3.00
2019-01-16T08:52:39.308Z,3.03
2019-01-16T08:58:31.019Z,3.43
2019-01-16T09:04:16.102Z,3.38
2019-01-16T09:09:52.927Z,3.42
2019-01-16T09:15:34.995Z,3.51
2019-01-16T09:21:09.278Z,3.86
2019-01-16T09:26:54.292Z,4.52
2019-01-16T09:32:33.540Z,4.68
2019-01-16T09:38:07.474Z,4.42
2019-01-16T09:43:42.896Z,4.72
2019-01-16T09:49:20.634Z,4.69
2019-01-16T09:54:54.108Z,4.65
2019-01-16T10:00:38.732Z,5.03
2019-01-16T10:06:04.113Z,5.49
2019-01-16T10:11:55.662Z,5.69
2019-01-16T10:17:33.786Z,5.55
2019-01-16T10:23:02.355Z,5.65
2019-01-16T10:28:47.453Z,5.68
2019-01-16T10:34:15.272Z,6.23
2019-01-16T10:39:46.537Z,6.55
2019-01-16T10:45:21.693Z,6.18
2019-01-16T10:51:08.185Z,5.81
2019-01-16T10:56:42.481Z,5.65
2019-01-16T11:02:18.151Z,5.44
2019-01-16T11:07:47.989Z,5.42
2019-01-16T11:13:16.506Z,5.74
2019-01-16T11:18:58.588Z,6.33
2019-01-16T11:24:21.995Z,6.82
2019-01-16T11:29:35.752Z,6.98
2019-01-16T11:35:11.879Z,7.27
2019-01-16T11:40:52.444Z,7.09
2019-01-16T11:46:25.911Z,7.00
2019-01-16T11:52:05.468Z,7.02
2019-01-16T11:57:33.283Z,7.13
2019-01-16T12:03:15.148Z,7.10
2019-01-16T12:08:59.975Z,7.48
2019-01-16T12:14:28.308Z,7.47
2019-01-16T12:20:02.670Z,7.48
2019-01-16T12:25:31.326Z,7.20
2019-01-16T12:31:00.395Z,6.84
2019-01-16T12:36:28.509Z,6.75
2019-01-16T12:42:01.566Z,6.80
2019-01-16T12:47:36.288Z,6.83
2019-01-16T12:53:02.648Z,6.62
2019-01-16T12:58:38.903Z,6.60
2019-01-16T13:04:20.761Z,6.64
2019-01-16T13:09:50.989Z,6.64
2019-01-16T13:15:20.494Z,6.60
2019-01-16T13:20:57.669Z,6.67
2019-01-16T13:26:33.548Z,6.64
2019-01-16T13:32:06.119Z,6.62
2019-01-16T13:37:51.386Z,6.63
2019-01-16T13:43:30.414Z,6.61
2019-01-16T13:49:16.147Z,6.51
2019-01-16T13:55:00.223Z,6.45
2019-01-16T14:00:55.804Z,6.32
2019-01-16T14:06:40.194Z,6.27
2019-01-16T14:12:24.088Z,6.28
2019-01-16T14:17:52.774Z,6.65
2019-01-16T14:23:40.063Z,7.31
2019-01-16T14:29:11.757Z,7.34
2019-01-16T14:34:36.703Z,6.55
2019-01-16T14:40:07.055Z,6.12
2019-01-16T14:45:39.397Z,5.96
2019-01-16T14:51:06.699Z,5.76
2019-01-16T14:56:43.884Z,5.61
2019-01-16T15:02:14.757Z,5.42
2019-01-16T15:07:59.264Z,5.28
2019-01-16T15:13:25.995Z,5.15
2019-01-16T15:18:57.598Z,5.14
2019-01-16T15:24:28.615Z,4.95
2019-01-16T15:29:59.330Z,4.88
2019-01-16T15:35:34.938Z,4.87
2019-01-16T15:41:05.899Z,4.77
2019-01-16T15:46:29.792Z,4.47
2019-01-16T15:52:03.808Z,4.35
2019-01-16T15:57:44.614Z,4.36
2019-01-16T16:03:26.843Z,4.24
2019-01-16T16:09:01.462Z,4.02
2019-01-16T16:14:52.439Z,3.82
2019-01-16T16:20:22.914Z,4.02
2019-01-16T16:26:01.781Z,4.27
2019-01-16T16:31:34.085Z,4.09
2019-01-16T16:37:10.389Z,4.13
2019-01-16T16:42:45.194Z,3.69
2019-01-16T16:48:23.075Z,3.39
2019-01-16T16:54:08.639Z,3.32
2019-01-16T16:59:54.077Z,3.38
2019-01-16T17:11:52.560Z,3.36
2019-01-16T17:17:28.848Z,3.40
2019-01-16T17:23:16.928Z,3.33
2019-01-16T17:28:45.374Z,3.25
2019-01-16T17:34:17.081Z,3.25
2019-01-16T17:39:57.620Z,3.41
2019-01-16T17:45:24.116Z,3.27
2019-01-16T17:50:57.051Z,3.47
2019-01-16T17:56:38.324Z,3.27
2019-01-16T18:02:24.445Z,3.70
2019-01-16T18:07:53.125Z,3.61
2019-01-16T18:13:38.932Z,3.83
2019-01-16T18:19:11.971Z,3.79
2019-01-16T18:24:44.843Z,4.08
2019-01-16T18:36:44.450Z,3.98
2019-01-16T18:42:43.174Z,3.84
2019-01-16T18:48:25.961Z,3.89
2019-01-16T18:54:05.393Z,3.99
2019-01-16T18:59:47.625Z,4.16
2019-01-16T19:11:43.513Z,4.09
2019-01-16T19:17:27.270Z,4.37
2019-01-16T20:11:59.766Z,4.00
2019-01-16T20:17:43.741Z,4.06
2019-01-16T20:23:13.838Z,4.17
2019-01-16T20:29:03.699Z,4.14
2019-01-16T20:34:52.923Z,4.01
2019-01-16T20:40:37.732Z,3.97
2019-01-16T20:46:12.797Z,3.81
2019-01-16T20:52:03.291Z,3.78
2019-01-16T20:58:10.642Z,3.72
2019-01-16T21:10:00.202Z,4.02
2019-01-16T21:15:57.131Z,3.97
2019-01-16T21:21:36.640Z,3.99
2019-01-16T21:27:16.414Z,3.95
2019-01-16T21:33:10.537Z,3.79
2019-01-16T21:38:39.531Z,3.87
2019-01-16T21:44:38.902Z,3.98
2019-01-16T21:50:15.958Z,3.88
2019-01-16T21:56:10.724Z,3.96
2019-01-16T22:01:47.496Z,3.70
2019-01-16T22:07:35.644Z,4.00
2019-01-16T22:13:10.331Z,3.95
2019-01-16T22:19:05.657Z,4.10
2019-01-16T22:29:47.793Z,3.93
2019-01-16T22:35:54.540Z,4.39
2019-01-16T22:41:39.988Z,4.21
2019-01-16T22:47:34.684Z,4.09
2019-01-16T22:53:05.869Z,3.88
2019-01-16T22:58:42.874Z,3.50
2019-01-16T23:04:30.588Z,3.32
2019-01-16T23:10:13.465Z,3.39
2019-01-16T23:15:51.631Z,3.37
2019-01-16T23:21:38.212Z,3.19
2019-01-16T23:27:12.147Z,3.02
2019-01-16T23:32:49.465Z,3.03
2019-01-16T23:38:43.564Z,2.91
2019-01-16T23:44:28.923Z,2.51
2019-01-16T23:50:00.473Z,2.35
2019-01-16T23:55:35.699Z,2.30
